Terminal Aerodrome Forecast
Issued by NWS Charleston, WV

Current Version | Previous Version | Graphics & Text | Print | Product List | Glossary On
Versions: 1 2 3 4 5 6 7 8 9 10 11 12 13 14 15 16 17 18 19 20
000
FTUS41 KRLX 041700 RRA
TAFHTS
TAF
KHTS 041756Z 0418/0518 32003KT 2SM RA BR OVC005
     FM050300 33008KT 3SM -PL BR OVC008
     FM050500 33008KT 2SM -SNPL BR OVC007
     FM050600 35007KT 1/2SM SN FG OVC004
     FM051200 34006KT 2SM -SN BR OVC008
     FM051500 33007KT 5SM -SN BR OVC015=

USA.gov is the U.S. government's official web portal to all federal, state and local government web resources and services.